createdAt,value
2023-01-15T00:04:29.650Z,36.80
2023-01-15T00:09:33.019Z,37.00
2023-01-15T00:14:37.652Z,37.00
2023-01-15T00:19:40.932Z,36.60
2023-01-15T00:25:01.596Z,37.00
2023-01-15T00:30:08.904Z,36.70
2023-01-15T00:35:14.665Z,36.40
2023-01-15T00:40:19.804Z,36.20
2023-01-15T00:45:24.578Z,36.40
2023-01-15T00:50:27.922Z,36.10
2023-01-15T00:55:31.141Z,36.20
2023-01-15T01:00:35.656Z,35.90
2023-01-15T01:05:38.902Z,35.40
2023-01-15T01:10:42.093Z,35.70
2023-01-15T01:15:46.579Z,35.80
2023-01-15T01:20:49.697Z,35.50
2023-01-15T01:25:52.863Z,35.70
2023-01-15T01:30:57.345Z,35.50
2023-01-15T01:36:00.486Z,35.30
2023-01-15T01:41:03.689Z,35.50
2023-01-15T01:46:08.275Z,35.70
2023-01-15T01:51:11.663Z,35.30
2023-01-15T01:56:17.601Z,35.50
2023-01-15T02:01:23.732Z,35.60
2023-01-15T02:06:28.338Z,35.40
2023-01-15T02:11:33.425Z,35.60
2023-01-15T02:16:41.615Z,35.50
2023-01-15T02:21:52.782Z,35.20
2023-01-15T02:27:16.307Z,35.30
2023-01-15T02:32:28.065Z,35.20
2023-01-15T02:37:36.393Z,35.40
2023-01-15T02:42:42.181Z,35.60
2023-01-15T02:47:47.027Z,35.50
2023-01-15T02:52:59.710Z,36.10
2023-01-15T02:58:10.980Z,36.30
2023-01-15T03:03:20.388Z,36.60
2023-01-15T03:08:23.750Z,36.60
2023-01-15T03:13:37.966Z,36.50
2023-01-15T03:18:46.987Z,36.60
2023-01-15T03:23:55.704Z,36.80
2023-01-15T03:29:01.773Z,36.80
2023-01-15T03:34:07.225Z,36.80
2023-01-15T03:39:10.417Z,36.80
2023-01-15T03:44:25.468Z,36.90
2023-01-15T03:49:39.422Z,37.40
2023-01-15T03:54:49.511Z,37.70
2023-01-15T03:59:58.302Z,37.60
2023-01-15T04:05:02.289Z,37.70
2023-01-15T04:10:09.241Z,37.60
2023-01-15T04:15:14.801Z,37.80
2023-01-15T04:20:18.363Z,37.70
2023-01-15T04:25:21.553Z,37.60
2023-01-15T04:30:26.042Z,37.60
2023-01-15T04:35:29.353Z,37.80
2023-01-15T04:40:50.337Z,37.90
2023-01-15T04:45:55.030Z,37.80
2023-01-15T04:51:03.248Z,38.20
2023-01-15T04:56:07.295Z,38.20
2023-01-15T05:01:13.930Z,38.20
2023-01-15T05:06:18.513Z,38.30
2023-01-15T05:11:21.909Z,38.20
2023-01-15T05:16:28.713Z,38.40
2023-01-15T05:21:33.794Z,38.60
2023-01-15T05:26:37.439Z,38.40
2023-01-15T05:31:45.103Z,38.40
2023-01-15T05:36:48.528Z,38.40
2023-01-15T05:41:51.780Z,39.00
2023-01-15T05:46:58.500Z,38.20
2023-01-15T05:52:03.132Z,38.20
2023-01-15T05:57:06.390Z,38.30
2023-01-15T06:02:10.919Z,38.20
2023-01-15T06:07:14.050Z,38.20
2023-01-15T06:12:17.255Z,38.20
2023-01-15T06:17:21.791Z,38.30
2023-01-15T06:22:25.067Z,38.30
2023-01-15T06:27:29.271Z,38.30
2023-01-15T06:32:33.727Z,38.80
2023-01-15T06:37:36.882Z,39.40
2023-01-15T06:42:57.232Z,39.70
2023-01-15T06:48:02.522Z,39.60
2023-01-15T06:53:05.637Z,39.30
2023-01-15T06:58:08.754Z,39.20
2023-01-15T07:03:14.330Z,39.20
2023-01-15T07:08:17.462Z,38.80
2023-01-15T07:13:20.590Z,38.60
2023-01-15T07:18:25.160Z,38.30
2023-01-15T07:23:29.333Z,38.90
2023-01-15T07:28:32.461Z,37.90
2023-01-15T07:33:36.935Z,37.70
2023-01-15T07:38:43.010Z,37.70
2023-01-15T07:44:03.634Z,37.70
2023-01-15T07:49:29.104Z,37.60
2023-01-15T07:54:32.411Z,37.20
2023-01-15T07:59:35.665Z,37.50
2023-01-15T08:04:40.243Z,37.50
2023-01-15T08:09:43.362Z,37.40
2023-01-15T08:15:03.814Z,37.40
2023-01-15T08:20:11.386Z,37.40
2023-01-15T08:25:16.769Z,37.40
2023-01-15T08:30:22.994Z,37.40
2023-01-15T08:35:27.586Z,37.50
2023-01-15T08:40:30.671Z,37.50
2023-01-15T08:45:33.883Z,37.60
2023-01-15T08:50:38.635Z,37.50
2023-01-15T08:55:42.045Z,37.50
2023-01-15T09:00:45.645Z,37.50
2023-01-15T09:05:50.271Z,37.30
2023-01-15T09:10:57.531Z,37.70
2023-01-15T09:16:01.450Z,37.70
2023-01-15T09:21:06.459Z,38.00
2023-01-15T09:26:24.370Z,38.10
2023-01-15T09:31:29.250Z,37.60
2023-01-15T09:36:35.639Z,37.80
2023-01-15T09:42:08.303Z,38.30
2023-01-15T09:47:16.862Z,39.20
2023-01-15T09:52:32.396Z,38.90
2023-01-15T09:57:37.103Z,39.60
2023-01-15T10:02:46.445Z,38.90
2023-01-15T10:07:59.080Z,39.60
2023-01-15T10:13:15.857Z,39.30
2023-01-15T10:18:22.364Z,39.60
2023-01-15T10:23:36.812Z,39.70
2023-01-15T10:28:59.566Z,40.80
2023-01-15T10:34:23.060Z,40.80
2023-01-15T10:39:35.626Z,40.10
2023-01-15T10:44:46.786Z,39.40
2023-01-15T10:49:52.213Z,39.10
2023-01-15T10:55:04.913Z,38.80
2023-01-15T11:00:11.318Z,39.10
2023-01-15T11:05:17.335Z,38.90
2023-01-15T11:10:24.876Z,39.10
2023-01-15T11:15:45.387Z,39.30
2023-01-15T11:20:50.236Z,39.10
2023-01-15T11:25:57.335Z,39.50
2023-01-15T11:31:00.589Z,39.50
2023-01-15T11:36:05.812Z,39.20
2023-01-15T11:41:22.517Z,39.20
2023-01-15T11:46:48.155Z,40.30
2023-01-15T11:51:51.589Z,39.70
2023-01-15T11:56:57.700Z,39.70
2023-01-15T12:02:04.401Z,40.10
2023-01-15T12:07:14.026Z,40.10
2023-01-15T12:12:28.047Z,40.10
2023-01-15T12:17:50.192Z,40.20
2023-01-15T12:23:08.982Z,40.10
2023-01-15T12:28:17.833Z,40.10
2023-01-15T12:33:29.672Z,40.20
2023-01-15T12:38:52.084Z,40.10
2023-01-15T12:44:17.257Z,40.10
2023-01-15T12:49:32.780Z,40.10
2023-01-15T12:54:42.536Z,40.00
2023-01-15T12:59:54.855Z,39.10
2023-01-15T13:05:08.292Z,39.90
2023-01-15T13:10:17.326Z,40.50
2023-01-15T13:15:28.163Z,40.60
2023-01-15T13:20:44.573Z,40.50
2023-01-15T13:25:59.988Z,40.50
2023-01-15T13:31:13.239Z,40.40
2023-01-15T13:36:19.795Z,40.40
2023-01-15T13:41:41.877Z,40.60
2023-01-15T13:46:47.835Z,40.70
2023-01-15T13:51:52.103Z,40.20
2023-01-15T13:56:55.302Z,40.90
2023-01-15T14:02:00.043Z,40.10
2023-01-15T14:07:03.201Z,40.40
2023-01-15T14:12:19.119Z,40.00
2023-01-15T14:17:49.253Z,40.40
2023-01-15T14:23:12.161Z,40.50
2023-01-15T14:28:37.881Z,40.90
2023-01-15T14:33:56.839Z,41.00
2023-01-15T14:39:01.728Z,40.60
2023-01-15T14:44:06.269Z,40.40
2023-01-15T14:49:30.512Z,40.40
2023-01-15T14:54:34.865Z,40.80
2023-01-15T14:59:46.365Z,40.40
2023-01-15T15:04:54.520Z,40.40
2023-01-15T15:10:03.087Z,40.30
2023-01-15T15:15:13.418Z,40.40
2023-01-15T15:20:29.254Z,40.40
2023-01-15T15:25:39.432Z,40.50
2023-01-15T15:30:46.064Z,40.50
2023-01-15T15:35:54.662Z,40.40
2023-01-15T15:41:00.150Z,40.40
2023-01-15T15:46:35.280Z,40.30
2023-01-15T15:51:41.267Z,40.40
2023-01-15T15:56:54.535Z,40.70
2023-01-15T16:01:59.870Z,40.90
2023-01-15T16:07:14.062Z,40.60
2023-01-15T16:12:18.529Z,40.80
2023-01-15T16:17:21.991Z,40.50
2023-01-15T16:22:26.629Z,40.40
2023-01-15T16:27:35.701Z,41.00
2023-01-15T16:32:44.354Z,40.90
2023-01-15T16:37:54.661Z,40.50
2023-01-15T16:43:08.118Z,40.90
2023-01-15T16:48:25.399Z,41.10
2023-01-15T16:53:41.536Z,40.90
2023-01-15T16:58:45.320Z,41.60
2023-01-15T17:03:48.456Z,41.20
2023-01-15T17:08:54.420Z,41.30
2023-01-15T17:14:21.346Z,41.80
2023-01-15T17:19:24.451Z,42.30
2023-01-15T17:24:28.909Z,41.70
2023-01-15T17:29:32.108Z,41.80
2023-01-15T17:34:35.211Z,41.60
2023-01-15T17:39:39.738Z,41.60
2023-01-15T17:44:43.225Z,41.70
2023-01-15T17:49:46.305Z,41.40
2023-01-15T17:55:08.244Z,41.30
2023-01-15T18:00:30.164Z,41.40
2023-01-15T18:05:35.376Z,41.30
2023-01-15T18:10:40.025Z,41.10
2023-01-15T18:15:43.473Z,41.10
2023-01-15T18:20:47.017Z,40.90
2023-01-15T18:25:51.792Z,40.80
2023-01-15T18:30:54.978Z,40.90
2023-01-15T18:36:06.310Z,40.80
2023-01-15T18:41:12.821Z,41.00
2023-01-15T18:46:33.333Z,40.90
2023-01-15T18:51:39.654Z,40.90
2023-01-15T18:56:48.003Z,40.80
2023-01-15T19:01:51.367Z,40.90
2023-01-15T19:06:55.103Z,40.80
2023-01-15T19:12:00.023Z,40.60
2023-01-15T19:17:20.438Z,40.60
2023-01-15T19:22:41.205Z,40.50
2023-01-15T19:27:48.271Z,40.60
2023-01-15T19:32:51.548Z,40.50
2023-01-15T19:37:55.246Z,40.50
2023-01-15T19:43:17.389Z,40.40
2023-01-15T19:48:39.303Z,40.20
2023-01-15T19:53:42.451Z,40.10
2023-01-15T19:58:47.036Z,40.20
2023-01-15T20:03:50.363Z,40.10
2023-01-15T20:08:55.137Z,40.00
2023-01-15T20:13:59.681Z,40.10
2023-01-15T20:19:03.105Z,39.90
2023-01-15T20:24:07.008Z,40.00
2023-01-15T20:29:11.538Z,39.90
2023-01-15T20:34:14.805Z,39.80
2023-01-15T20:39:18.376Z,39.80
2023-01-15T20:44:40.674Z,39.70
2023-01-15T20:49:43.806Z,39.70
2023-01-15T20:54:46.970Z,39.60
2023-01-15T20:59:51.691Z,39.60
2023-01-15T21:04:54.783Z,39.40
2023-01-15T21:09:58.148Z,39.50
2023-01-15T21:15:02.821Z,39.70
2023-01-15T21:20:07.289Z,39.40
2023-01-15T21:25:11.125Z,39.30
2023-01-15T21:30:16.119Z,39.20
2023-01-15T21:35:19.443Z,39.10
2023-01-15T21:40:22.610Z,39.30
2023-01-15T21:45:27.800Z,39.20
2023-01-15T21:50:33.397Z,39.00
2023-01-15T21:55:36.811Z,38.80
2023-01-15T22:00:42.857Z,39.00
2023-01-15T22:05:46.633Z,39.00
2023-01-15T22:10:49.952Z,38.80
2023-01-15T22:15:57.663Z,38.90
2023-01-15T22:21:02.308Z,38.60
2023-01-15T22:26:05.798Z,39.00
2023-01-15T22:31:10.296Z,39.00
2023-01-15T22:36:14.782Z,38.90
2023-01-15T22:41:38.024Z,39.00
2023-01-15T22:46:42.775Z,38.90
2023-01-15T22:51:45.937Z,38.70
2023-01-15T22:56:49.522Z,38.70
2023-01-15T23:01:54.296Z,38.40
2023-01-15T23:06:57.583Z,38.60
2023-01-15T23:12:00.745Z,38.60
2023-01-15T23:17:05.271Z,38.40
2023-01-15T23:22:08.664Z,38.40
2023-01-15T23:27:13.948Z,38.40
2023-01-15T23:32:21.590Z,38.50
2023-01-15T23:37:24.841Z,38.40
2023-01-15T23:42:45.681Z,38.40
2023-01-15T23:47:50.201Z,38.30
2023-01-15T23:52:53.308Z,38.30
2023-01-15T23:57:56.507Z,38.30
